This is the latest recevied weather packets stored in our database for station/object KF0EZB. If no packets are shown the sender has not sent any weather packets the latest 10 day(s).
| Time | Temp. | Humidity | Pressure | Rain* | Wind** | Luminosity | Snow |
|---|---|---|---|---|---|---|---|
| 1778088688 | 10° C | 81% | 1020.1 hPa | 0 mm | - | 388 W/m² | - |
| 1778088386 | 10° C | 83% | 1020.3 hPa | 0 mm | - | 483 W/m² | - |
| 1778088082 | 9.44° C | 84% | 1020.2 hPa | 0 mm | - | 418 W/m² | - |
| 1778087780 | 8.89° C | 84% | 1020.2 hPa | 0 mm | - | 429 W/m² | - |
| 1778087477 | 8.89° C | 84% | 1020.3 hPa | 0 mm | - | 223 W/m² | - |
| 1778087174 | 8.33° C | 84% | 1020.3 hPa | 0 mm | - | 233 W/m² | - |
| 1778086871 | 8.33° C | 83% | 1020.6 hPa | 0 mm | - | 172 W/m² | - |
| 1778086570 | 8.89° C | 84% | 1020.8 hPa | 0 mm | - | 163 W/m² | - |
| 1778086265 | 8.33° C | 84% | 1020.7 hPa | 0 mm | - | 193 W/m² | - |
| 1778085963 | 8.33° C | 84% | 1020.6 hPa | 0 mm | - | 226 W/m² | - |
| 1778085660 | 8.33° C | 85% | 1020.3 hPa | 0 mm | - | 186 W/m² | - |
| 1778085355 | 8.33° C | 86% | 1020.4 hPa | 0 mm | - | 161 W/m² | - |
| 1778085051 | 8.33° C | 88% | 1020.6 hPa | 0 mm | - | 192 W/m² | - |
| 1778084748 | 7.78° C | 91% | 1020.2 hPa | 0 mm | - | 341 W/m² | - |
| 1778084439 | 7.78° C | 93% | 1020.2 hPa | 0 mm | - | 359 W/m² | - |
| 1778084137 | 7.78° C | 95% | 1020.2 hPa | 0 mm | - | 293 W/m² | - |
| 1778083828 | 7.22° C | 97% | 1020 hPa | 0 mm | - | 292 W/m² | - |
| 1778083526 | 6.67° C | 98% | 1020 hPa | 0 mm | - | 365 W/m² | - |
| 1778083223 | 6.67° C | 98% | 1020.1 hPa | 0 mm | - | 317 W/m² | - |
| 1778082921 | 6.67° C | 98% | 1020.1 hPa | 0 mm | - | 271 W/m² | - |
| 1778081818 | 6.11° C | 99% | 1020.1 hPa | 0 mm | - | 160 W/m² | - |
| 1778081515 | 6.67° C | 99% | 1020.2 hPa | 0 mm | - | 196 W/m² | - |
| 1778081212 | 6.11° C | 99% | 1020.1 hPa | 0 mm | - | 208 W/m² | - |
| 1778080910 | 5.56° C | 99% | 1020.1 hPa | 0 mm | - | 160 W/m² | - |
| 1778080609 | 5.56° C | 99% | 1020 hPa | 0 mm | - | 133 W/m² | - |
* Rain latest hour (hover to see other rain measurements)
** Current wind speed in m/s (hover to see current wind gust speed)